Time;durP1;ratioP1;P1;durP2;ratioP2;P2;SDS_P1;SDS_P2;PMS_P1;PMS_P2;Temp;Humidity;BMP_temperature;BMP_pressure;BME280_temperature;BME280_humidity;BME280_pressure;Samples;Min_cycle;Max_cycle;Signal;HPM_P1;HPM_P2
2023/01/31 00:00:02;;;;;;;22.03;10.83;;;4.20;89.30;;;;;;4987274;28;20236;-78
2023/01/31 00:02:31;;;;;;;25.30;11.70;;;4.20;89.30;;;;;;4987689;28;20655;-77
2023/01/31 00:04:59;;;;;;;22.13;11.17;;;4.30;89.30;;;;;;4992244;28;20201;-77
2023/01/31 00:07:28;;;;;;;22.27;10.67;;;4.30;89.30;;;;;;4989643;28;20252;-77
2023/01/31 00:09:56;;;;;;;26.88;13.43;;;4.30;89.20;;;;;;4989902;28;20523;-77
2023/01/31 00:12:24;;;;;;;23.33;11.63;;;4.30;89.40;;;;;;4991325;28;20196;-77
2023/01/31 00:14:54;;;;;;;25.00;11.70;;;4.40;89.50;;;;;;4983464;28;20236;-77
2023/01/31 00:17:22;;;;;;;26.13;11.33;;;4.30;89.30;;;;;;4993473;28;20650;-78
2023/01/31 00:19:51;;;;;;;22.07;10.00;;;4.40;89.30;;;;;;4985520;28;20618;-77
2023/01/31 00:22:19;;;;;;;26.98;14.10;;;4.40;89.30;;;;;;4983677;28;20525;-77
2023/01/31 00:24:47;;;;;;;25.30;12.07;;;4.40;89.70;;;;;;4984119;28;20205;-77
2023/01/31 00:27:15;;;;;;;26.17;11.87;;;4.50;89.60;;;;;;4985752;28;20240;-77
2023/01/31 00:29:44;;;;;;;26.80;11.53;;;4.50;89.50;;;;;;4990408;28;20216;-77
2023/01/31 00:32:13;;;;;;;23.70;10.93;;;4.50;89.10;;;;;;4981009;28;20244;-77
2023/01/31 00:34:42;;;;;;;22.23;10.80;;;4.50;89.00;;;;;;4979301;28;20216;-77
2023/01/31 00:37:10;;;;;;;21.77;10.97;;;4.50;88.80;;;;;;4986148;28;20233;-77
2023/01/31 00:39:38;;;;;;;25.27;11.20;;;4.50;88.80;;;;;;4981525;28;20642;-78
2023/01/31 00:42:09;;;;;;;26.60;11.50;;;4.60;88.80;;;;;;4984625;28;20630;-78
2023/01/31 00:44:37;;;;;;;21.17;10.20;;;4.60;88.80;;;;;;4978315;28;20229;-77
2023/01/31 00:47:05;;;;;;;19.40;9.63;;;4.60;88.70;;;;;;4988125;28;20193;-77
2023/01/31 00:49:35;;;;;;;24.73;11.67;;;4.60;88.50;;;;;;4983967;28;20772;-78
2023/01/31 00:52:04;;;;;;;23.37;10.10;;;4.60;88.40;;;;;;4983366;28;20686;-77
2023/01/31 00:54:32;;;;;;;21.23;10.63;;;4.70;88.50;;;;;;4979928;28;20202;-77
2023/01/31 00:57:02;;;;;;;26.83;13.67;;;4.70;88.60;;;;;;4980997;28;20520;-78
2023/01/31 00:59:32;;;;;;;24.60;11.37;;;4.70;88.90;;;;;;4977437;28;20189;-78
2023/01/31 01:02:00;;;;;;;24.03;11.40;;;4.70;88.90;;;;;;4979702;28;20193;-78
2023/01/31 01:04:29;;;;;;;22.90;11.20;;;4.80;88.80;;;;;;4980495;28;20403;-79
2023/01/31 01:06:58;;;;;;;22.53;9.77;;;4.80;89.50;;;;;;4985135;28;20272;-77
2023/01/31 01:09:26;;;;;;;24.27;10.73;;;4.80;88.60;;;;;;4979687;28;20240;-78
2023/01/31 01:11:55;;;;;;;23.67;10.60;;;4.80;88.30;;;;;;4982486;28;20585;-77
2023/01/31 01:14:23;;;;;;;22.63;10.63;;;4.90;88.20;;;;;;4981476;28;20201;-77
2023/01/31 01:16:52;;;;;;;23.90;11.43;;;4.90;88.20;;;;;;4985924;28;20201;-77
2023/01/31 01:19:21;;;;;;;23.00;10.93;;;4.90;88.10;;;;;;4983305;28;20209;-77
2023/01/31 01:21:49;;;;;;;23.57;11.03;;;4.90;88.00;;;;;;4986234;28;20317;-77
2023/01/31 01:24:20;;;;;;;23.40;11.47;;;4.90;87.90;;;;;;4986285;28;20197;-77
2023/01/31 01:26:48;;;;;;;24.03;11.87;;;4.90;87.90;;;;;;4980439;28;20201;-77
2023/01/31 01:29:17;;;;;;;23.23;11.00;;;5.00;88.10;;;;;;4986293;28;20202;-79
2023/01/31 01:31:45;;;;;;;22.83;10.87;;;5.00;88.00;;;;;;4984781;28;20393;-77
2023/01/31 01:34:15;;;;;;;26.60;11.50;;;5.00;88.00;;;;;;4983430;28;20916;-78
2023/01/31 01:36:43;;;;;;;23.93;10.50;;;5.00;88.10;;;;;;4981520;28;20197;-77
2023/01/31 01:39:15;;;;;;;25.93;11.33;;;5.10;88.10;;;;;;4988085;28;20267;-77
2023/01/31 01:41:45;;;;;;;23.87;10.77;;;5.10;87.90;;;;;;4984893;28;20201;-77
2023/01/31 01:44:49;;;;;;;24.13;11.33;;;5.10;87.70;;;;;;4985301;28;20251;-77
2023/01/31 01:47:27;;;;;;;26.13;12.37;;;5.10;87.80;;;;;;4986723;28;20284;-78
2023/01/31 01:49:59;;;;;;;23.10;11.23;;;5.20;87.80;;;;;;4985584;28;20197;-77
2023/01/31 01:52:30;;;;;;;21.97;11.17;;;5.20;87.70;;;;;;4990615;28;20574;-77
2023/01/31 01:55:04;;;;;;;27.05;13.55;;;5.20;87.60;;;;;;4990563;28;20927;-77
2023/01/31 01:57:37;;;;;;;24.20;11.73;;;5.20;87.70;;;;;;4988057;28;20269;-77
2023/01/31 02:00:12;;;;;;;22.23;11.10;;;5.30;87.60;;;;;;4988467;28;20271;-77
2023/01/31 02:02:42;;;;;;;26.67;11.63;;;5.30;88.40;;;;;;4980215;28;20193;-78
2023/01/31 02:05:12;;;;;;;24.60;11.50;;;5.30;87.70;;;;;;4990323;28;20237;-77
2023/01/31 02:07:41;;;;;;;21.63;10.60;;;5.30;87.70;;;;;;4981862;28;20620;-78
2023/01/31 02:10:15;;;;;;;25.80;11.67;;;5.40;87.80;;;;;;4980122;28;20201;-77
2023/01/31 02:12:46;;;;;;;22.77;11.73;;;5.40;87.80;;;;;;4987211;28;20205;-77
2023/01/31 02:15:14;;;;;;;22.57;11.27;;;5.40;87.80;;;;;;4982378;28;20805;-77
2023/01/31 02:17:43;;;;;;;23.77;11.27;;;5.40;87.80;;;;;;4984500;28;20421;-77
2023/01/31 02:20:28;;;;;;;23.40;11.77;;;5.40;87.80;;;;;;4992013;28;20446;-77
2023/01/31 02:23:20;;;;;;;25.10;12.03;;;5.40;88.00;;;;;;4984353;28;20229;-77
2023/01/31 02:26:06;;;;;;;25.03;11.17;;;5.40;88.00;;;;;;4985732;28;20260;-77
2023/01/31 02:29:11;;;;;;;20.73;11.23;;;5.40;88.20;;;;;;4985908;28;20558;-77
2023/01/31 02:35:03;;;;;;;30.20;13.10;;;5.40;89.10;;;;;;5083039;27;20605;-78
2023/01/31 02:37:37;;;;;;;26.40;12.33;;;5.40;89.00;;;;;;5077830;28;20699;-77
2023/01/31 02:40:14;;;;;;;25.10;13.33;;;5.40;89.10;;;;;;5072201;28;20198;-77
2023/01/31 02:42:54;;;;;;;24.80;12.33;;;5.40;89.00;;;;;;5071669;28;20254;-77
2023/01/31 02:45:32;;;;;;;27.80;13.33;;;5.40;89.00;;;;;;5070155;28;20780;-78
2023/01/31 02:48:14;;;;;;;24.33;12.60;;;5.40;89.20;;;;;;5071582;28;20186;-77
2023/01/31 02:50:49;;;;;;;27.43;13.00;;;5.40;89.20;;;;;;5064976;28;20194;-78
2023/01/31 02:53:24;;;;;;;30.40;13.43;;;5.40;89.30;;;;;;5064408;28;20268;-77
2023/01/31 02:56:16;;;;;;;26.13;12.27;;;5.40;89.30;;;;;;5073311;28;20247;-78
2023/01/31 02:58:54;;;;;;;28.10;12.97;;;5.40;89.40;;;;;;5071174;28;20535;-77
2023/01/31 03:01:27;;;;;;;26.57;12.37;;;5.40;89.70;;;;;;5076606;28;20587;-77
2023/01/31 03:04:03;;;;;;;29.70;13.60;;;5.40;89.80;;;;;;5071931;28;20679;-78
2023/01/31 03:07:07;;;;;;;26.73;13.33;;;5.30;89.70;;;;;;5069572;28;20190;-77
2023/01/31 03:09:39;;;;;;;25.43;11.90;;;5.30;90.00;;;;;;5061641;28;20206;-77
2023/01/31 03:12:34;;;;;;;28.07;13.37;;;5.30;90.00;;;;;;5067200;28;20194;-77
2023/01/31 03:15:24;;;;;;;31.90;13.23;;;5.30;90.00;;;;;;5064690;28;20201;-78
2023/01/31 03:17:59;;;;;;;30.37;13.70;;;5.30;90.10;;;;;;5061056;28;20194;-78
2023/01/31 03:20:35;;;;;;;25.83;12.83;;;5.30;90.10;;;;;;5062104;28;20651;-77
2023/01/31 03:23:10;;;;;;;31.43;13.77;;;5.30;90.20;;;;;;5063415;28;20228;-77
2023/01/31 03:25:40;;;;;;;26.83;12.53;;;5.30;90.20;;;;;;5074582;28;20185;-77
2023/01/31 03:28:12;;;;;;;27.70;13.20;;;5.30;90.20;;;;;;5062343;28;20188;-76
2023/01/31 03:30:45;;;;;;;27.63;13.27;;;5.30;90.30;;;;;;5068997;28;20280;-77
2023/01/31 03:33:18;;;;;;;27.33;13.57;;;5.20;90.30;;;;;;5068113;28;20227;-77
2023/01/31 03:35:52;;;;;;;30.17;14.33;;;5.20;90.30;;;;;;5062594;28;20305;-77
2023/01/31 03:38:25;;;;;;;32.17;14.40;;;5.20;90.40;;;;;;5073935;28;20189;-76
2023/01/31 03:40:58;;;;;;;27.17;14.37;;;5.20;90.40;;;;;;5072687;28;20194;-76
2023/01/31 03:43:31;;;;;;;32.13;14.57;;;5.20;90.40;;;;;;5071819;28;20776;-77
2023/01/31 03:46:05;;;;;;;26.67;13.63;;;5.20;90.70;;;;;;5059498;28;20190;-78
2023/01/31 03:48:40;;;;;;;31.03;14.43;;;5.20;90.60;;;;;;5067970;28;20196;-78
2023/01/31 03:51:14;;;;;;;28.93;13.53;;;5.20;90.60;;;;;;5058867;28;20187;-77
2023/01/31 03:53:49;;;;;;;31.55;14.98;;;5.10;90.60;;;;;;5061678;28;20884;-76
2023/01/31 03:56:21;;;;;;;31.00;14.23;;;5.10;90.60;;;;;;5055566;28;20191;-77
2023/01/31 03:58:53;;;;;;;32.97;15.20;;;5.10;90.70;;;;;;5063298;28;20601;-77
2023/01/31 04:01:26;;;;;;;30.60;13.83;;;5.10;90.70;;;;;;5056281;28;20276;-77
2023/01/31 04:03:58;;;;;;;31.97;14.50;;;5.10;90.70;;;;;;5045146;28;20673;-77
2023/01/31 04:06:27;;;;;;;33.55;16.85;;;5.10;90.70;;;;;;5056045;28;20911;-77
2023/01/31 04:08:57;;;;;;;30.63;14.03;;;5.00;90.80;;;;;;5057735;28;20717;-76
2023/01/31 04:11:27;;;;;;;29.73;14.67;;;5.00;90.80;;;;;;5058211;28;20196;-77
2023/01/31 04:13:55;;;;;;;30.23;15.03;;;5.00;90.90;;;;;;5058843;28;20273;-77
2023/01/31 04:16:23;;;;;;;33.73;15.17;;;5.00;90.90;;;;;;5054203;28;20278;-77
2023/01/31 04:18:52;;;;;;;29.83;13.20;;;5.00;91.00;;;;;;5052156;28;20234;-77
2023/01/31 04:21:20;;;;;;;27.07;12.43;;;5.00;91.00;;;;;;5056126;28;20191;-77
2023/01/31 04:23:48;;;;;;;29.00;12.40;;;4.90;90.90;;;;;;5056265;28;20195;-77
2023/01/31 04:26:18;;;;;;;26.80;12.07;;;4.90;90.90;;;;;;5048865;28;20741;-76
2023/01/31 04:28:47;;;;;;;28.03;12.73;;;4.90;90.90;;;;;;5053651;28;20598;-78
2023/01/31 04:31:15;;;;;;;28.20;12.23;;;4.90;90.90;;;;;;5050474;28;20282;-77
2023/01/31 04:33:43;;;;;;;28.73;13.07;;;4.90;91.00;;;;;;5059591;28;20235;-77
2023/01/31 04:36:12;;;;;;;27.40;13.83;;;4.90;91.00;;;;;;5057059;28;20190;-77
2023/01/31 04:38:40;;;;;;;27.10;13.43;;;4.90;91.10;;;;;;5054108;28;20237;-76
2023/01/31 04:41:08;;;;;;;26.73;12.47;;;4.80;91.10;;;;;;5056430;28;20244;-77
2023/01/31 04:43:38;;;;;;;28.63;13.63;;;4.80;91.30;;;;;;5060227;28;20223;-77
2023/01/31 04:46:07;;;;;;;31.17;13.20;;;4.80;91.20;;;;;;5060880;28;20198;-77
2023/01/31 04:48:35;;;;;;;26.20;12.43;;;4.80;91.30;;;;;;5063909;28;20190;-76
2023/01/31 04:51:04;;;;;;;32.47;13.83;;;4.70;91.30;;;;;;5058166;28;20707;-77
2023/01/31 04:53:32;;;;;;;27.30;13.17;;;4.70;91.30;;;;;;5058844;28;20635;-77
2023/01/31 04:56:00;;;;;;;30.47;13.30;;;4.70;91.30;;;;;;5062586;28;20213;-77
2023/01/31 04:58:28;;;;;;;30.05;14.75;;;4.70;91.30;;;;;;5058412;28;20822;-78
2023/01/31 05:00:58;;;;;;;26.47;12.03;;;4.70;91.40;;;;;;5054496;28;20203;-77
2023/01/31 05:03:27;;;;;;;25.43;12.37;;;4.70;91.40;;;;;;5058151;28;20194;-76
2023/01/31 05:05:55;;;;;;;27.97;13.10;;;4.70;91.40;;;;;;5061005;28;20195;-76
2023/01/31 05:08:24;;;;;;;29.07;13.40;;;4.80;91.40;;;;;;5053883;28;20211;-76
2023/01/31 05:10:58;;;;;;;31.43;13.27;;;4.80;91.40;;;;;;5059197;28;20186;-76
2023/01/31 05:13:26;;;;;;;26.63;12.03;;;4.70;91.40;;;;;;5064651;28;20192;-77
2023/01/31 05:15:56;;;;;;;24.30;12.37;;;4.70;91.40;;;;;;5062456;28;20222;-77
2023/01/31 05:18:26;;;;;;;24.63;11.87;;;4.80;91.40;;;;;;5058658;28;20230;-76
2023/01/31 05:20:54;;;;;;;23.23;11.97;;;4.80;91.40;;;;;;5060882;28;20545;-76
2023/01/31 05:23:23;;;;;;;28.53;13.50;;;4.70;91.40;;;;;;5058075;28;20198;-76
2023/01/31 05:25:52;;;;;;;27.03;12.30;;;4.80;91.40;;;;;;5072554;28;20186;-75
2023/01/31 05:28:20;;;;;;;30.23;13.67;;;4.80;91.40;;;;;;5061062;28;20217;-75
2023/01/31 05:30:48;;;;;;;29.60;13.73;;;4.70;91.50;;;;;;5065042;28;20198;-76
2023/01/31 05:33:19;;;;;;;38.30;16.65;;;4.80;91.50;;;;;;5047895;28;20436;-76
2023/01/31 05:35:49;;;;;;;35.50;14.97;;;4.80;91.60;;;;;;5060591;28;20272;-76
2023/01/31 05:38:17;;;;;;;36.77;15.60;;;4.70;91.60;;;;;;5054008;28;20254;-77
2023/01/31 05:40:46;;;;;;;31.50;14.53;;;4.70;91.60;;;;;;5056506;28;20183;-76
2023/01/31 05:43:14;;;;;;;28.43;14.20;;;4.70;91.60;;;;;;5062676;28;20245;-76
2023/01/31 05:45:43;;;;;;;30.97;14.10;;;4.70;91.60;;;;;;5063007;28;20201;-76
2023/01/31 05:48:12;;;;;;;30.73;13.97;;;4.80;91.60;;;;;;5052403;28;20191;-76
2023/01/31 05:50:40;;;;;;;29.53;14.23;;;4.80;91.60;;;;;;5061477;28;20257;-76
2023/01/31 05:53:10;;;;;;;29.50;13.63;;;4.80;91.60;;;;;;5055976;28;20543;-76
2023/01/31 05:55:38;;;;;;;27.67;12.87;;;4.80;91.70;;;;;;5060463;28;20678;-76
2023/01/31 05:58:06;;;;;;;30.23;13.70;;;4.80;91.70;;;;;;5062646;28;20190;-76
2023/01/31 06:00:35;;;;;;;29.57;14.17;;;4.80;91.70;;;;;;5062969;28;20502;-76
2023/01/31 06:03:03;;;;;;;28.00;13.40;;;4.80;91.80;;;;;;5060186;28;20218;-76
2023/01/31 06:05:32;;;;;;;26.30;13.97;;;4.80;91.80;;;;;;5061602;28;20244;-76
2023/01/31 06:08:00;;;;;;;28.00;12.93;;;4.80;91.80;;;;;;5059558;28;20643;-76
2023/01/31 06:10:31;;;;;;;24.73;12.63;;;4.80;91.80;;;;;;5055053;28;20190;-77
2023/01/31 06:12:59;;;;;;;28.35;14.50;;;4.80;91.80;;;;;;5057516;28;20488;-77
2023/01/31 06:15:27;;;;;;;24.67;13.10;;;4.80;92.00;;;;;;5048470;28;20248;-76
2023/01/31 06:17:55;;;;;;;26.37;13.43;;;4.80;92.00;;;;;;5050335;28;20277;-77
2023/01/31 06:20:24;;;;;;;24.80;11.50;;;4.90;92.00;;;;;;5055822;28;20635;-76
2023/01/31 06:22:53;;;;;;;23.87;11.83;;;4.90;91.90;;;;;;5047251;28;20211;-76
2023/01/31 06:25:21;;;;;;;28.63;14.70;;;4.90;91.90;;;;;;5050578;28;20432;-77
2023/01/31 06:27:51;;;;;;;25.53;12.60;;;5.00;92.00;;;;;;5050093;28;20560;-77
2023/01/31 06:30:20;;;;;;;26.43;12.63;;;5.00;92.00;;;;;;5061306;28;20196;-77
2023/01/31 06:32:51;;;;;;;29.97;13.07;;;5.00;92.00;;;;;;5066354;28;20226;-77
2023/01/31 06:35:25;;;;;;;28.90;12.00;;;5.10;92.00;;;;;;5056234;28;20212;-76
2023/01/31 06:37:55;;;;;;;26.73;11.77;;;5.10;91.90;;;;;;5060299;28;20195;-77
2023/01/31 06:40:23;;;;;;;27.20;12.83;;;5.10;91.90;;;;;;5053501;28;20602;-77
2023/01/31 06:42:53;;;;;;;28.27;12.50;;;5.10;91.80;;;;;;5058497;28;20198;-78
2023/01/31 06:45:21;;;;;;;30.53;13.30;;;5.20;91.90;;;;;;5049879;28;20731;-77
2023/01/31 06:47:50;;;;;;;29.90;14.07;;;5.20;91.80;;;;;;5059701;28;20277;-77
2023/01/31 06:50:18;;;;;;;30.37;14.47;;;5.20;91.80;;;;;;5058111;28;20654;-77
2023/01/31 06:52:47;;;;;;;29.17;13.60;;;5.30;91.80;;;;;;5059244;28;20233;-78
2023/01/31 06:55:15;;;;;;;28.63;14.70;;;5.30;91.80;;;;;;5054240;28;20226;-77
2023/01/31 06:57:47;;;;;;;30.60;14.17;;;5.30;91.80;;;;;;5054498;28;20194;-77
2023/01/31 07:00:18;;;;;;;30.03;13.73;;;5.40;91.80;;;;;;5057629;28;20223;-77
2023/01/31 07:02:47;;;;;;;28.43;13.97;;;5.40;91.80;;;;;;5049352;28;20277;-77
2023/01/31 07:05:15;;;;;;;27.40;13.13;;;5.40;91.80;;;;;;5059346;28;20201;-77
2023/01/31 07:07:44;;;;;;;26.53;13.77;;;5.50;91.80;;;;;;5057249;28;20624;-77
2023/01/31 07:10:13;;;;;;;26.80;13.50;;;5.50;91.80;;;;;;5060462;28;20266;-78
2023/01/31 07:12:41;;;;;;;29.13;13.37;;;5.50;91.80;;;;;;5056893;28;20192;-77
2023/01/31 07:15:11;;;;;;;30.37;14.13;;;5.50;91.70;;;;;;5058230;28;20645;-78
2023/01/31 07:17:42;;;;;;;26.47;12.80;;;5.50;91.70;;;;;;5063469;28;20198;-77
2023/01/31 07:20:12;;;;;;;27.83;13.77;;;5.60;91.70;;;;;;5051359;28;20198;-76
2023/01/31 07:22:40;;;;;;;32.13;15.37;;;5.60;91.80;;;;;;5049305;28;20239;-77
2023/01/31 07:25:09;;;;;;;28.93;14.07;;;5.60;91.80;;;;;;5048797;28;20199;-77
2023/01/31 07:27:38;;;;;;;27.70;14.20;;;5.60;91.80;;;;;;5061959;28;20440;-78
2023/01/31 07:30:07;;;;;;;29.77;14.63;;;5.60;91.70;;;;;;5056759;28;20600;-76
2023/01/31 07:32:35;;;;;;;35.20;14.47;;;5.60;91.70;;;;;;5052063;28;20249;-76
2023/01/31 07:35:06;;;;;;;29.23;13.77;;;5.70;91.70;;;;;;5067752;28;20252;-75
2023/01/31 07:37:34;;;;;;;30.07;14.10;;;5.70;91.70;;;;;;5064806;28;20223;-76
2023/01/31 07:40:04;;;;;;;28.53;13.27;;;5.70;91.70;;;;;;5060029;28;20187;-76
2023/01/31 07:42:33;;;;;;;24.77;12.43;;;5.70;91.60;;;;;;5058340;28;20199;-76
2023/01/31 07:45:01;;;;;;;25.77;11.97;;;5.70;91.60;;;;;;5058457;28;20664;-75
2023/01/31 07:47:49;;;;;;;27.23;13.00;;;5.80;91.60;;;;;;5056849;28;20186;-76
2023/01/31 07:50:19;;;;;;;28.98;13.98;;;5.80;91.60;;;;;;5066131;28;20435;-75
2023/01/31 07:52:48;;;;;;;26.43;13.20;;;5.80;91.90;;;;;;5048333;28;20668;-76
2023/01/31 07:55:17;;;;;;;22.63;12.17;;;6.00;91.60;;;;;;5058080;28;20647;-76
2023/01/31 07:57:46;;;;;;;23.70;11.43;;;6.00;91.50;;;;;;5054535;28;20202;-76
2023/01/31 08:05:47;;;;;;;26.63;11.50;;;6.30;91.40;;;;;;5063604;28;20192;-76
2023/01/31 08:08:15;;;;;;;23.50;10.80;;;6.30;91.30;;;;;;5061641;28;20189;-76
2023/01/31 08:10:45;;;;;;;23.97;11.60;;;6.40;91.20;;;;;;5065886;28;20589;-77
2023/01/31 08:13:14;;;;;;;20.47;9.93;;;6.50;91.20;;;;;;5064047;28;20203;-76
2023/01/31 08:15:42;;;;;;;22.87;10.70;;;6.50;91.20;;;;;;5058008;28;20827;-76
2023/01/31 08:18:11;;;;;;;21.67;10.27;;;6.60;91.20;;;;;;5059502;28;20281;-77
2023/01/31 08:20:40;;;;;;;21.57;10.77;;;6.70;91.20;;;;;;5064569;28;20189;-76
2023/01/31 08:23:10;;;;;;;19.87;9.73;;;6.80;91.10;;;;;;5060949;28;20198;-77
2023/01/31 08:25:38;;;;;;;18.37;9.37;;;6.80;90.70;;;;;;5057115;28;20225;-76
2023/01/31 08:28:06;;;;;;;21.03;10.17;;;6.90;90.60;;;;;;5055657;28;20651;-76
2023/01/31 08:44:53;;;;;;;18.30;8.97;;;7.00;90.00;;;;;;5058077;28;20563;-75
2023/01/31 08:47:22;;;;;;;16.70;7.93;;;7.20;90.40;;;;;;5043689;28;20292;-75
2023/01/31 08:49:50;;;;;;;21.00;10.23;;;7.20;90.30;;;;;;5048878;28;20199;-76
2023/01/31 08:52:18;;;;;;;20.20;10.37;;;7.30;90.20;;;;;;5042225;28;20195;-75
2023/01/31 08:54:47;;;;;;;22.47;11.30;;;7.30;90.00;;;;;;5041791;28;20225;-74
2023/01/31 08:57:15;;;;;;;23.07;11.30;;;7.30;89.70;;;;;;5046504;28;20191;-75
2023/01/31 08:59:43;;;;;;;22.23;11.07;;;7.30;89.50;;;;;;5042793;28;20191;-75
2023/01/31 09:02:13;;;;;;;19.67;10.87;;;7.40;89.70;;;;;;5037890;28;20187;-76
2023/01/31 09:04:41;;;;;;;20.37;10.17;;;7.40;89.70;;;;;;5044371;28;20195;-76
2023/01/31 09:07:09;;;;;;;19.77;9.33;;;7.50;89.10;;;;;;5037619;28;20195;-76
2023/01/31 09:09:38;;;;;;;24.43;11.27;;;7.50;88.60;;;;;;5039758;28;20188;-75
2023/01/31 09:12:07;;;;;;;21.87;10.83;;;7.50;88.80;;;;;;5041761;28;20202;-75
2023/01/31 09:14:35;;;;;;;21.93;10.40;;;7.50;89.00;;;;;;5051342;28;20202;-76
2023/01/31 09:17:03;;;;;;;20.37;9.10;;;7.60;88.70;;;;;;5045156;28;20198;-75
2023/01/31 09:19:33;;;;;;;20.63;9.93;;;7.60;89.10;;;;;;5042009;28;20202;-76
2023/01/31 09:22:01;;;;;;;19.63;9.87;;;7.70;88.60;;;;;;5043866;28;20652;-75
2023/01/31 09:24:30;;;;;;;19.37;9.60;;;7.80;88.30;;;;;;5046858;28;20591;-76
2023/01/31 09:26:58;;;;;;;22.73;11.77;;;7.80;87.10;;;;;;5046376;28;20257;-76
2023/01/31 09:29:27;;;;;;;20.27;9.73;;;7.80;87.10;;;;;;5039541;28;20659;-76
2023/01/31 09:31:55;;;;;;;19.50;9.63;;;7.90;86.60;;;;;;5038993;28;20246;-76
2023/01/31 09:34:24;;;;;;;18.07;9.07;;;7.90;86.70;;;;;;5042029;28;20709;-76
2023/01/31 09:36:56;;;;;;;20.63;10.43;;;7.90;86.70;;;;;;5039734;28;20245;-75
2023/01/31 09:39:25;;;;;;;19.77;9.50;;;8.00;86.20;;;;;;5040128;28;20445;-75
2023/01/31 09:56:19;;;;;;;20.10;9.27;;;8.00;84.90;;;;;;5123530;27;20580;-74
2023/01/31 09:58:56;;;;;;;19.77;10.07;;;8.10;85.90;;;;;;5102240;27;20218;-75
2023/01/31 10:01:30;;;;;;;21.30;10.67;;;8.10;85.60;;;;;;5107173;28;20189;-76
2023/01/31 10:04:08;;;;;;;23.83;12.20;;;8.10;85.50;;;;;;5109768;28;20189;-76
2023/01/31 10:06:53;;;;;;;21.60;10.93;;;8.20;85.60;;;;;;5110755;27;20185;-75
2023/01/31 10:09:29;;;;;;;19.00;9.37;;;8.30;85.70;;;;;;5104285;28;20199;-75
2023/01/31 10:12:04;;;;;;;22.27;11.23;;;8.30;85.70;;;;;;5100630;28;20188;-74
2023/01/31 10:14:36;;;;;;;23.37;11.90;;;8.30;85.80;;;;;;5107999;28;20298;-74
2023/01/31 10:17:11;;;;;;;20.87;10.07;;;8.40;85.70;;;;;;5113677;28;20192;-73
2023/01/31 10:19:47;;;;;;;18.27;9.93;;;8.40;85.70;;;;;;5108714;27;20201;-73
2023/01/31 10:22:21;;;;;;;20.37;9.67;;;8.40;85.50;;;;;;5110228;28;20679;-73
2023/01/31 10:24:54;;;;;;;19.63;10.57;;;8.50;85.40;;;;;;5105202;28;20181;-73
2023/01/31 10:27:39;;;;;;;16.17;9.07;;;8.60;84.80;;;;;;5103983;27;20182;-74
2023/01/31 10:30:16;;;;;;;18.67;8.10;;;8.60;84.50;;;;;;5101248;28;20203;-74
2023/01/31 10:32:47;;;;;;;18.50;8.33;;;8.60;84.10;;;;;;5103756;28;20598;-74
2023/01/31 10:35:21;;;;;;;16.70;7.77;;;8.60;84.20;;;;;;5106660;28;20296;-74
2023/01/31 10:37:53;;;;;;;16.50;8.40;;;8.60;83.90;;;;;;5100619;28;20666;-74
2023/01/31 10:40:26;;;;;;;15.10;7.77;;;8.60;83.90;;;;;;5107429;28;20217;-73
2023/01/31 10:43:02;;;;;;;16.37;7.63;;;8.60;83.90;;;;;;5102140;28;20280;-73
2023/01/31 10:45:32;;;;;;;15.83;7.97;;;8.60;83.90;;;;;;5101068;28;20250;-73
2023/01/31 10:48:14;;;;;;;17.97;8.57;;;8.60;83.90;;;;;;5102644;28;20185;-74
2023/01/31 10:50:55;;;;;;;15.63;8.10;;;8.60;84.00;;;;;;5112560;28;20188;-73
2023/01/31 10:53:45;;;;;;;18.80;8.87;;;8.60;84.00;;;;;;5102547;28;20207;-74
2023/01/31 10:56:21;;;;;;;15.57;9.30;;;8.60;84.00;;;;;;5089996;28;20205;-74
2023/01/31 10:58:52;;;;;;;18.27;8.27;;;8.60;83.90;;;;;;5086679;28;20193;-75
2023/01/31 11:01:20;;;;;;;18.97;9.73;;;8.60;83.80;;;;;;5092314;28;20273;-74
2023/01/31 11:03:51;;;;;;;16.50;8.17;;;8.60;83.60;;;;;;5088058;28;20198;-74
2023/01/31 11:06:20;;;;;;;18.30;9.27;;;8.50;82.90;;;;;;5085944;28;20288;-74
2023/01/31 11:08:52;;;;;;;16.30;8.47;;;8.50;83.30;;;;;;5095704;28;20218;-73
2023/01/31 11:11:22;;;;;;;19.03;9.47;;;8.50;83.00;;;;;;5090712;28;20590;-74
2023/01/31 11:14:03;;;;;;;16.93;8.23;;;8.50;83.00;;;;;;5090243;28;20185;-75
2023/01/31 11:16:35;;;;;;;21.37;10.47;;;8.50;83.30;;;;;;5089595;28;20722;-76
2023/01/31 11:19:15;;;;;;;19.07;9.07;;;8.50;83.40;;;;;;5094791;28;20182;-75
2023/01/31 11:21:50;;;;;;;18.23;9.20;;;8.40;83.30;;;;;;5094742;28;20189;-74
2023/01/31 11:24:21;;;;;;;21.00;10.73;;;8.50;83.40;;;;;;5090385;28;20649;-74
2023/01/31 11:26:53;;;;;;;21.93;10.77;;;8.40;83.40;;;;;;5083777;27;20190;-74
2023/01/31 11:29:28;;;;;;;20.87;10.77;;;8.40;83.40;;;;;;5089950;28;20242;-75
2023/01/31 11:31:58;;;;;;;21.03;11.03;;;8.40;83.30;;;;;;5086146;28;20186;-75
2023/01/31 11:34:28;;;;;;;22.00;11.23;;;8.40;83.50;;;;;;5088779;28;20584;-74
2023/01/31 11:37:04;;;;;;;24.83;11.00;;;8.40;83.10;;;;;;5093756;28;20196;-74
2023/01/31 11:39:37;;;;;;;20.90;10.70;;;8.40;83.20;;;;;;5090276;28;20722;-75
2023/01/31 11:42:06;;;;;;;20.37;10.57;;;8.30;83.20;;;;;;5088718;28;20185;-74
2023/01/31 11:44:36;;;;;;;18.70;9.17;;;8.40;83.20;;;;;;5096684;28;20197;-74
2023/01/31 11:47:11;;;;;;;21.13;10.23;;;8.40;83.50;;;;;;5094462;28;20190;-77
2023/01/31 11:49:42;;;;;;;23.50;11.70;;;8.40;83.50;;;;;;5081307;28;20637;-74
2023/01/31 11:52:16;;;;;;;23.07;11.07;;;8.40;83.20;;;;;;5081983;28;20627;-74
2023/01/31 11:54:48;;;;;;;21.33;9.87;;;8.40;83.20;;;;;;5089449;28;20250;-75
2023/01/31 11:57:21;;;;;;;20.50;10.73;;;8.50;84.10;;;;;;5089711;28;20655;-76
2023/01/31 11:59:55;;;;;;;17.70;9.33;;;8.50;83.20;;;;;;5088917;28;20240;-74
2023/01/31 12:02:30;;;;;;;17.87;8.77;;;8.60;83.10;;;;;;5097751;28;20193;-76
2023/01/31 12:05:01;;;;;;;19.17;9.00;;;8.60;82.20;;;;;;5079582;28;20200;-76
2023/01/31 12:07:37;;;;;;;18.07;8.70;;;8.70;82.60;;;;;;5086433;28;20198;-75
2023/01/31 12:10:35;;;;;;;17.23;8.17;;;8.80;82.40;;;;;;5095954;28;20193;-80
2023/01/31 12:13:13;;;;;;;18.17;8.03;;;8.80;82.00;;;;;;5088748;28;20194;-75
2023/01/31 12:15:54;;;;;;;15.93;8.87;;;8.80;81.50;;;;;;5090820;28;20213;-76
2023/01/31 12:18:46;;;;;;;20.23;10.33;;;8.80;81.60;;;;;;5078075;28;20640;-78
2023/01/31 12:21:17;;;;;;;17.08;9.25;;;8.90;82.00;;;;;;5085547;28;20437;-74
2023/01/31 12:23:59;;;;;;;16.40;8.83;;;8.90;81.90;;;;;;5089222;28;20190;-75
2023/01/31 12:26:36;;;;;;;18.60;8.63;;;8.90;81.80;;;;;;5087093;28;20192;-76
2023/01/31 12:29:28;;;;;;;15.60;8.70;;;8.80;81.70;;;;;;5079447;28;20197;-74
2023/01/31 12:32:09;;;;;;;15.80;8.20;;;8.80;81.30;;;;;;5084765;28;20190;-74
2023/01/31 12:34:58;;;;;;;20.80;10.13;;;8.80;81.40;;;;;;5091223;28;20599;-79
2023/01/31 12:37:46;;;;;;;19.67;9.17;;;8.70;81.10;;;;;;5086843;28;20553;-73
2023/01/31 12:40:37;;;;;;;16.43;7.43;;;8.70;81.30;;;;;;5085943;28;20231;-74
2023/01/31 12:43:20;;;;;;;16.63;8.80;;;8.70;80.80;;;;;;5087186;28;20189;-75
2023/01/31 12:46:08;;;;;;;16.53;8.70;;;8.80;81.20;;;;;;5054651;28;20204;-76
2023/01/31 12:49:15;;;;;;;14.47;7.87;;;8.90;81.20;;;;;;5085897;28;20186;-75
2023/01/31 12:51:58;;;;;;;14.00;7.70;;;9.00;81.10;;;;;;5055262;28;20196;-75
2023/01/31 12:54:43;;;;;;;18.43;8.63;;;9.00;80.20;;;;;;5083505;28;20274;-73
2023/01/31 12:57:30;;;;;;;16.87;8.27;;;9.10;80.50;;;;;;5089032;28;20219;-74
2023/01/31 13:00:12;;;;;;;15.93;8.53;;;9.20;80.50;;;;;;5089500;28;20198;-74
2023/01/31 13:02:50;;;;;;;17.00;8.73;;;9.20;79.60;;;;;;5088596;28;20190;-74
2023/01/31 13:05:27;;;;;;;18.77;8.10;;;9.40;80.20;;;;;;5089723;28;20194;-74
2023/01/31 13:08:03;;;;;;;15.33;7.40;;;9.60;80.20;;;;;;5091872;28;20205;-73
2023/01/31 13:10:37;;;;;;;16.40;8.67;;;9.70;79.40;;;;;;5088931;28;20204;-74
2023/01/31 13:13:15;;;;;;;15.53;8.07;;;9.80;79.80;;;;;;5091285;28;20657;-73
2023/01/31 13:15:48;;;;;;;18.80;8.80;;;9.80;78.40;;;;;;5089067;28;20263;-73
2023/01/31 13:18:18;;;;;;;14.27;7.23;;;9.80;78.00;;;;;;5087826;28;20192;-74
2023/01/31 13:20:51;;;;;;;14.07;7.40;;;9.90;78.80;;;;;;5089544;28;20193;-73
2023/01/31 13:23:30;;;;;;;15.97;8.30;;;10.00;78.90;;;;;;5081202;28;20186;-74
2023/01/31 13:26:04;;;;;;;19.83;8.17;;;10.10;78.60;;;;;;5083992;28;20189;-73
2023/01/31 13:28:37;;;;;;;15.80;8.43;;;10.20;78.20;;;;;;5090254;28;20193;-74
2023/01/31 13:31:11;;;;;;;13.30;7.73;;;10.20;77.50;;;;;;5092044;28;20545;-74
2023/01/31 13:33:46;;;;;;;12.70;6.87;;;10.20;76.30;;;;;;5090148;28;20220;-74
2023/01/31 13:36:22;;;;;;;14.50;7.07;;;10.10;76.10;;;;;;5087947;28;20236;-75
2023/01/31 13:38:52;;;;;;;13.43;7.07;;;10.10;76.40;;;;;;5086041;28;20234;-74
2023/01/31 13:41:28;;;;;;;13.67;7.60;;;10.00;75.90;;;;;;5087017;28;20183;-75